Spencer, Virginia
Current Conditions -  °F | °C
As of 12:15 PM on Wednesday 26 Nov 2014 (Local Time) from KMTV Reporting Station
Light Rain Light Rain  
Wind Chill: 34°   Ceiling: 4900
Heat Index: 38°   Visibility: 10mi
Dew Point: 38°   Wind: 5mph
Humidity: 100%   Direction: 320°NW
Pressure: 30"   Gusts: NA
Location:  36.62°N, 80.01°W
Report Text: KMTV 261715Z AUTO 32004KT 10SM -RA SCT043 OVC049 03/03 A3000 RMK AO2 P0001 T00330033
Loading
Personal Weather Stations






























Interactive Weather Map New forecast layout! Learn more

10-Day Weather Forecast

Advertisements
Track Severe Weather on mobile